Time;durP1;ratioP1;P1;durP2;ratioP2;P2;SDS_P1;SDS_P2;PMS_P1;PMS_P2;Temp;Humidity;BMP_temperature;BMP_pressure;BME280_temperature;BME280_humidity;BME280_pressure;Samples;Min_cycle;Max_cycle;Signal;HPM_P1;HPM_P2
2023/11/18 00:00:51;;;;;;;;;;;;;;;21.25;29.14;96839.19;5018626;28;1958;-75
2023/11/18 00:03:16;;;;;;;;;;;;;;;21.03;29.41;96847.78;4997577;28;1550;-76
2023/11/18 00:05:42;;;;;;;;;;;;;;;20.86;29.59;96846.50;4994606;28;1350;-75
2023/11/18 00:08:07;;;;;;;;;;;;;;;21.02;29.26;96851.09;4995734;28;1661;-76
2023/11/18 00:10:33;;;;;;;;;;;;;;;20.94;29.61;96856.28;4997650;28;1602;-75
2023/11/18 00:12:58;;;;;;;;;;;;;;;21.04;29.57;96857.09;4986457;28;1401;-75
2023/11/18 00:15:24;;;;;;;;;;;;;;;20.68;30.09;96869.88;4998170;28;1429;-76
2023/11/18 00:17:49;;;;;;;;;;;;;;;20.63;30.44;96867.66;4980979;28;1550;-75
2023/11/18 00:20:16;;;;;;;;;;;;;;;21.05;29.82;96859.44;4997033;28;1985;-74
2023/11/18 00:22:42;;;;;;;;;;;;;;;21.38;29.51;96841.09;4981098;28;1572;-75
2023/11/18 00:25:07;;;;;;;;;;;;;;;21.38;29.25;96839.06;4961521;28;1423;-75
2023/11/18 00:27:35;;;;;;;;;;;;;;;21.41;28.95;96846.63;4980779;28;1418;-76
2023/11/18 00:30:04;;;;;;;;;;;;;;;21.32;29.39;96850.22;4989216;28;1550;-76
2023/11/18 00:32:31;;;;;;;;;;;;;;;21.16;29.18;96847.66;4991445;28;1679;-75
2023/11/18 00:34:57;;;;;;;;;;;;;;;20.88;29.69;96843.22;5014052;28;1546;-75
2023/11/18 00:37:22;;;;;;;;;;;;;;;20.85;29.92;96832.84;5014501;28;1677;-75
2023/11/18 00:39:48;;;;;;;;;;;;;;;21.03;30.10;96818.72;5016942;28;1987;-75
2023/11/18 00:42:13;;;;;;;;;;;;;;;21.14;30.04;96821.09;5015800;28;1623;-76
2023/11/18 00:44:39;;;;;;;;;;;;;;;21.32;29.90;96821.94;5032245;28;1380;-76
2023/11/18 00:47:04;;;;;;;;;;;;;;;21.22;30.35;96808.22;5019277;28;1560;-75
2023/11/18 00:49:30;;;;;;;;;;;;;;;21.38;29.85;96804.31;5035614;28;1656;-76
2023/11/18 00:51:55;;;;;;;;;;;;;;;21.39;29.67;96800.22;5007890;28;1385;-76
2023/11/18 00:54:22;;;;;;;;;;;;;;;21.08;30.06;96795.47;5018231;28;1491;-75
2023/11/18 00:56:47;;;;;;;;;;;;;;;21.12;30.26;96795.34;5019897;28;1494;-75
2023/11/18 00:59:15;;;;;;;;;;;;;;;21.22;30.25;96783.53;5019544;28;1529;-75
2023/11/18 01:01:40;;;;;;;;;;;;;;;20.68;31.14;96782.25;5026261;28;1958;-75
2023/11/18 01:04:06;;;;;;;;;;;;;;;20.96;30.77;96793.59;5019534;28;1581;-75
2023/11/18 01:06:32;;;;;;;;;;;;;;;20.93;30.75;96789.66;5001029;28;1433;-75
2023/11/18 01:08:57;;;;;;;;;;;;;;;21.19;30.77;96789.34;5000293;28;1553;-76
2023/11/18 01:11:23;;;;;;;;;;;;;;;21.41;30.35;96780.75;5013679;28;1534;-76
2023/11/18 01:13:49;;;;;;;;;;;;;;;21.43;30.41;96781.06;5014532;28;1643;-75
2023/11/18 01:16:15;;;;;;;;;;;;;;;21.42;30.36;96779.47;4997026;28;1409;-75
2023/11/18 01:18:41;;;;;;;;;;;;;;;21.35;30.46;96785.44;5015416;28;1593;-74
2023/11/18 01:21:08;;;;;;;;;;;;;;;21.41;30.18;96783.56;4979344;28;1969;-75
2023/11/18 01:23:38;;;;;;;;;;;;;;;21.36;29.92;96778.56;4999011;28;1448;-76
2023/11/18 01:26:04;;;;;;;;;;;;;;;20.84;30.61;96780.41;4983649;28;1457;-75
2023/11/18 01:28:32;;;;;;;;;;;;;;;20.98;30.50;96779.75;4998196;28;1341;-75
2023/11/18 01:30:59;;;;;;;;;;;;;;;20.98;30.72;96779.75;4998351;28;1669;-76
2023/11/18 01:33:25;;;;;;;;;;;;;;;20.85;31.11;96776.31;5000052;28;1594;-75
2023/11/18 01:35:50;;;;;;;;;;;;;;;21.39;30.24;96769.09;4995631;28;1471;-75
2023/11/18 01:38:16;;;;;;;;;;;;;;;21.45;30.19;96767.19;5009398;28;1481;-75
2023/11/18 01:40:41;;;;;;;;;;;;;;;21.40;30.10;96746.00;5014827;28;1977;-75
2023/11/18 01:43:12;;;;;;;;;;;;;;;21.57;29.70;96746.44;4998574;28;1544;-76
2023/11/18 01:45:37;;;;;;;;;;;;;;;21.79;29.42;96741.34;4982046;28;1310;-76
2023/11/18 01:48:03;;;;;;;;;;;;;;;21.63;29.61;96729.59;5014834;28;1421;-75
2023/11/18 01:50:29;;;;;;;;;;;;;;;21.07;30.27;96731.69;4981828;28;1588;-75
2023/11/18 01:52:55;;;;;;;;;;;;;;;21.17;29.96;96727.59;4998111;28;1588;-75
2023/11/18 01:55:21;;;;;;;;;;;;;;;21.20;29.73;96723.84;4981993;28;1541;-75
2023/11/18 01:57:46;;;;;;;;;;;;;;;20.96;30.22;96725.72;5014538;28;1513;-76
2023/11/18 02:00:12;;;;;;;;;;;;;;;21.22;30.08;96715.66;4998071;28;1985;-75
2023/11/18 02:02:43;;;;;;;;;;;;;;;21.09;30.25;96712.22;4982475;28;1470;-75
2023/11/18 02:05:12;;;;;;;;;;;;;;;21.07;30.44;96703.41;4981847;28;1432;-75
2023/11/18 02:07:38;;;;;;;;;;;;;;;21.28;30.35;96696.78;5012184;28;1779;-76
2023/11/18 02:10:04;;;;;;;;;;;;;;;21.18;30.45;96698.06;5015105;28;1499;-75
2023/11/18 02:12:34;;;;;;;;;;;;;;;21.21;30.07;96697.13;4999520;28;1539;-75
2023/11/18 02:15:00;;;;;;;;;;;;;;;21.11;30.16;96687.06;4982920;28;1385;-76
2023/11/18 02:17:26;;;;;;;;;;;;;;;21.03;30.15;96694.28;5011262;28;1508;-75
2023/11/18 02:19:56;;;;;;;;;;;;;;;20.66;30.67;96691.47;5015475;28;1981;-75
2023/11/18 02:22:21;;;;;;;;;;;;;;;20.94;31.39;96699.97;4983636;28;1592;-75
2023/11/18 02:24:47;;;;;;;;;;;;;;;21.37;31.20;96706.56;4983272;28;1531;-75
2023/11/18 02:27:13;;;;;;;;;;;;;;;21.54;31.69;96702.09;5016758;28;1624;-76
2023/11/18 02:29:42;;;;;;;;;;;;;;;21.66;31.60;96706.78;4988639;28;1612;-75
2023/11/18 02:32:23;;;;;;;;;;;;;;;21.65;31.96;96718.56;4989889;28;1580;-75
2023/11/18 02:34:55;;;;;;;;;;;;;;;21.77;31.90;96714.78;4996688;28;1577;-75
2023/11/18 02:37:21;;;;;;;;;;;;;;;21.48;32.57;96723.81;4992901;28;1472;-76
2023/11/18 02:39:49;;;;;;;;;;;;;;;21.63;32.35;96727.56;4979294;28;1918;-76
2023/11/18 02:42:14;;;;;;;;;;;;;;;21.33;32.99;96729.34;4986314;28;1653;-75
2023/11/18 02:44:41;;;;;;;;;;;;;;;21.77;32.27;96738.22;4979895;28;1584;-75
2023/11/18 02:47:06;;;;;;;;;;;;;;;21.89;31.29;96744.16;4976377;28;1533;-76
2023/11/18 02:49:34;;;;;;;;;;;;;;;21.04;32.50;96749.63;4960570;28;1389;-75
2023/11/18 02:51:59;;;;;;;;;;;;;;;20.86;32.55;96743.94;4998540;28;1433;-75
2023/11/18 02:54:26;;;;;;;;;;;;;;;21.16;31.70;96740.19;4999051;28;1485;-76
2023/11/18 02:56:51;;;;;;;;;;;;;;;21.03;31.66;96748.03;4999681;28;1548;-76
2023/11/18 02:59:17;;;;;;;;;;;;;;;21.17;31.47;96757.94;4999530;28;1437;-75
2023/11/18 03:01:43;;;;;;;;;;;;;;;21.19;31.56;96755.41;5000859;28;1902;-75
2023/11/18 03:04:08;;;;;;;;;;;;;;;21.56;31.54;96759.03;4999720;28;1584;-75
2023/11/18 03:06:35;;;;;;;;;;;;;;;21.46;31.91;96757.47;5000955;28;1512;-75
2023/11/18 03:09:01;;;;;;;;;;;;;;;21.49;31.89;96745.97;5015429;28;1590;-75
2023/11/18 03:11:29;;;;;;;;;;;;;;;21.60;31.79;96751.13;5020276;28;1404;-76
2023/11/18 03:13:56;;;;;;;;;;;;;;;21.62;31.76;96748.63;5020177;28;1444;-76
2023/11/18 03:16:22;;;;;;;;;;;;;;;21.59;31.42;96732.59;5039563;28;1424;-76
2023/11/18 03:18:48;;;;;;;;;;;;;;;21.39;31.68;96746.47;5040639;28;1627;-75
2023/11/18 03:21:14;;;;;;;;;;;;;;;21.39;31.29;96752.13;5030742;28;1976;-75
2023/11/18 03:23:40;;;;;;;;;;;;;;;21.28;31.17;96764.69;5021553;28;1503;-76
2023/11/18 03:26:06;;;;;;;;;;;;;;;21.21;31.44;96761.41;5033120;28;1544;-76
2023/11/18 03:28:32;;;;;;;;;;;;;;;21.18;31.13;96768.00;5014352;28;1553;-76
2023/11/18 03:30:57;;;;;;;;;;;;;;;21.10;31.37;96763.91;4998583;28;1557;-76
2023/11/18 03:33:23;;;;;;;;;;;;;;;21.08;31.36;96756.66;4999821;28;1582;-76
2023/11/18 03:35:48;;;;;;;;;;;;;;;21.35;31.50;96757.16;4969123;28;1560;-75
2023/11/18 03:38:14;;;;;;;;;;;;;;;21.15;31.81;96749.94;4973810;28;1346;-75
2023/11/18 03:40:44;;;;;;;;;;;;;;;21.35;31.21;96745.84;4950249;28;1985;-75
2023/11/18 03:43:11;;;;;;;;;;;;;;;21.64;30.79;96754.59;4977252;28;1593;-76
2023/11/18 03:45:40;;;;;;;;;;;;;;;21.42;31.19;96746.31;5011879;28;1630;-75
2023/11/18 03:48:07;;;;;;;;;;;;;;;21.35;31.07;96752.31;4982520;28;1394;-76
2023/11/18 03:50:33;;;;;;;;;;;;;;;21.25;31.04;96757.16;4987710;28;1481;-75
2023/11/18 03:52:58;;;;;;;;;;;;;;;20.93;31.52;96750.06;5018279;28;1396;-75
2023/11/18 03:55:25;;;;;;;;;;;;;;;21.07;31.06;96757.16;4985843;28;1609;-76
2023/11/18 03:57:51;;;;;;;;;;;;;;;21.14;31.01;96768.16;4984968;28;1453;-76
2023/11/18 04:00:17;;;;;;;;;;;;;;;21.01;30.91;96768.31;5015358;28;1943;-75
2023/11/18 04:02:45;;;;;;;;;;;;;;;21.19;30.56;96755.41;5019419;28;1707;-75
2023/11/18 04:05:11;;;;;;;;;;;;;;;21.07;31.04;96743.00;5005110;28;1460;-75
2023/11/18 04:07:36;;;;;;;;;;;;;;;21.72;31.65;96727.53;5005495;28;1541;-75
2023/11/18 04:10:03;;;;;;;;;;;;;;;21.76;32.31;96725.31;5020972;28;1534;-75
2023/11/18 04:12:30;;;;;;;;;;;;;;;21.91;31.63;96718.97;4985916;28;1529;-75
2023/11/18 04:14:56;;;;;;;;;;;;;;;21.41;31.81;96721.31;5005584;28;1441;-75
2023/11/18 04:17:21;;;;;;;;;;;;;;;21.27;31.66;96723.50;5021266;28;1412;-75
2023/11/18 04:19:47;;;;;;;;;;;;;;;20.94;31.82;96722.59;5037324;28;1976;-75
2023/11/18 04:22:13;;;;;;;;;;;;;;;20.71;32.48;96699.34;5036547;28;1327;-75
2023/11/18 04:24:38;;;;;;;;;;;;;;;21.07;31.81;96684.41;5021044;28;1492;-75
2023/11/18 04:27:04;;;;;;;;;;;;;;;21.10;31.79;96677.03;5020626;28;1520;-76
2023/11/18 04:29:30;;;;;;;;;;;;;;;21.31;31.53;96695.88;5020907;28;1448;-76
2023/11/18 04:31:55;;;;;;;;;;;;;;;21.36;31.54;96690.84;5021210;28;1555;-75
2023/11/18 04:34:21;;;;;;;;;;;;;;;21.43;31.25;96684.84;5037393;28;1649;-76
2023/11/18 04:36:47;;;;;;;;;;;;;;;21.49;31.09;96677.28;5019923;28;1631;-75
2023/11/18 04:39:12;;;;;;;;;;;;;;;21.30;31.61;96660.34;5020292;28;1539;-76
2023/11/18 04:41:38;;;;;;;;;;;;;;;21.48;31.03;96661.56;5019976;28;1951;-75
2023/11/18 04:44:05;;;;;;;;;;;;;;;21.06;31.53;96674.34;5020460;28;1752;-75
2023/11/18 04:46:30;;;;;;;;;;;;;;;21.10;31.43;96665.72;5036518;28;1885;-75
2023/11/18 04:48:56;;;;;;;;;;;;;;;21.05;31.54;96672.00;5017108;28;1737;-75
2023/11/18 04:51:25;;;;;;;;;;;;;;;21.24;31.15;96673.56;5018706;28;1468;-76
2023/11/18 04:53:50;;;;;;;;;;;;;;;20.71;31.47;96668.25;5020828;28;955;-76
2023/11/18 04:56:18;;;;;;;;;;;;;;;21.28;30.94;96668.50;5037568;28;1033;-75
2023/11/18 04:58:46;;;;;;;;;;;;;;;21.40;30.75;96646.16;5020676;28;1084;-75
2023/11/18 05:01:12;;;;;;;;;;;;;;;21.43;30.77;96634.69;5036356;28;1984;-76
2023/11/18 05:03:38;;;;;;;;;;;;;;;21.49;30.47;96638.44;4987350;28;1140;-75
2023/11/18 05:06:04;;;;;;;;;;;;;;;21.60;30.23;96666.22;5020006;28;1269;-75
2023/11/18 05:08:30;;;;;;;;;;;;;;;21.36;30.67;96690.84;5037490;28;1034;-75
2023/11/18 05:10:57;;;;;;;;;;;;;;;21.42;30.51;96688.94;5016984;28;995;-75
2023/11/18 05:13:23;;;;;;;;;;;;;;;21.16;30.81;96694.16;5000098;28;989;-75
2023/11/18 05:15:49;;;;;;;;;;;;;;;21.26;30.42;96692.88;5000591;28;995;-76
2023/11/18 05:18:15;;;;;;;;;;;;;;;21.01;30.40;96682.69;5000778;28;1031;-75
2023/11/18 05:20:43;;;;;;;;;;;;;;;20.96;30.84;96674.84;5016929;28;1981;-75
2023/11/18 05:23:09;;;;;;;;;;;;;;;21.07;30.60;96664.59;5016962;28;959;-76
2023/11/18 05:25:36;;;;;;;;;;;;;;;21.10;30.61;96673.41;5001745;28;1006;-76
2023/11/18 05:28:01;;;;;;;;;;;;;;;21.76;31.39;96674.38;4998969;28;964;-75
2023/11/18 05:30:27;;;;;;;;;;;;;;;21.90;31.38;96681.38;4984017;28;986;-76
2023/11/18 05:32:53;;;;;;;;;;;;;;;21.74;31.91;96688.19;4999630;28;929;-76
2023/11/18 05:35:18;;;;;;;;;;;;;;;22.10;31.24;96675.13;4981783;28;983;-76
2023/11/18 05:37:44;;;;;;;;;;;;;;;22.04;31.35;96660.06;4997620;28;992;-76
2023/11/18 05:40:11;;;;;;;;;;;;;;;21.76;32.24;96667.88;4999019;28;2013;-76
2023/11/18 05:42:37;;;;;;;;;;;;;;;21.78;32.18;96654.84;5029026;28;1202;-76
2023/11/18 05:45:07;;;;;;;;;;;;;;;21.50;31.95;96653.38;5020400;28;1021;-75
2023/11/18 05:47:34;;;;;;;;;;;;;;;21.29;31.74;96636.09;4985110;28;1050;-77
2023/11/18 05:49:59;;;;;;;;;;;;;;;21.28;31.35;96628.88;4985004;28;989;-77
2023/11/18 05:52:25;;;;;;;;;;;;;;;21.14;31.54;96612.59;5001456;28;1259;-76
2023/11/18 05:54:51;;;;;;;;;;;;;;;20.64;32.15;96614.88;4998355;28;1024;-76
2023/11/18 05:57:16;;;;;;;;;;;;;;;21.18;31.06;96621.69;4978615;28;1053;-76
2023/11/18 05:59:42;;;;;;;;;;;;;;;21.35;31.02;96646.81;4964294;28;1228;-76
2023/11/18 06:02:08;;;;;;;;;;;;;;;21.40;30.86;96671.63;4958400;28;1903;-77
2023/11/18 06:04:33;;;;;;;;;;;;;;;21.42;31.52;96677.63;4958694;28;1414;-76
2023/11/18 06:06:59;;;;;;;;;;;;;;;21.45;31.81;96668.16;4974822;28;971;-76
2023/11/18 06:09:25;;;;;;;;;;;;;;;21.30;31.77;96640.56;4974736;28;1423;-76
2023/11/18 06:11:51;;;;;;;;;;;;;;;21.70;31.32;96639.44;4958730;28;1119;-75
2023/11/18 06:14:16;;;;;;;;;;;;;;;21.75;31.13;96649.34;4958717;28;1504;-76
2023/11/18 06:16:42;;;;;;;;;;;;;;;21.48;30.93;96648.19;4975013;28;969;-76
2023/11/18 06:19:09;;;;;;;;;;;;;;;21.50;30.91;96661.84;4975046;28;972;-75
2023/11/18 06:21:36;;;;;;;;;;;;;;;21.41;31.09;96659.06;4958616;28;1891;-76
2023/11/18 06:24:04;;;;;;;;;;;;;;;21.32;31.08;96671.97;4974531;28;1074;-76
2023/11/18 06:26:29;;;;;;;;;;;;;;;21.12;31.02;96676.53;4942829;28;1220;-76
2023/11/18 06:28:55;;;;;;;;;;;;;;;20.89;31.55;96678.00;4974895;28;950;-75
2023/11/18 06:31:20;;;;;;;;;;;;;;;21.29;30.60;96672.09;4985653;28;1514;-76
2023/11/18 06:33:47;;;;;;;;;;;;;;;20.80;31.67;96673.91;4996289;28;1395;-76
2023/11/18 06:36:22;;;;;;;;;;;;;;;21.30;31.46;96674.50;5018055;28;1115;-75
2023/11/18 06:38:49;;;;;;;;;;;;;;;21.15;31.64;96682.03;5017506;28;1570;-75
2023/11/18 06:41:16;;;;;;;;;;;;;;;21.41;31.05;96665.50;5017984;28;2224;-75
2023/11/18 06:43:51;;;;;;;;;;;;;;;21.65;30.60;96662.75;5017425;28;1099;-75
2023/11/18 06:46:20;;;;;;;;;;;;;;;21.28;31.06;96674.16;5034650;28;932;-75
2023/11/18 06:48:48;;;;;;;;;;;;;;;21.20;31.01;96689.91;5018492;28;886;-75
2023/11/18 06:51:15;;;;;;;;;;;;;;;21.24;30.92;96690.53;5018559;28;888;-75
2023/11/18 06:53:40;;;;;;;;;;;;;;;21.11;30.96;96684.25;5034904;28;899;-75
2023/11/18 06:56:06;;;;;;;;;;;;;;;21.24;30.49;96689.72;5038105;28;1160;-75
2023/11/18 06:58:32;;;;;;;;;;;;;;;21.30;30.49;96688.66;5021740;28;1166;-75
2023/11/18 07:00:57;;;;;;;;;;;;;;;21.20;30.73;96681.41;5038780;28;1906;-75
2023/11/18 07:03:23;;;;;;;;;;;;;;;21.14;30.48;96669.16;5039067;28;909;-74
2023/11/18 07:05:49;;;;;;;;;;;;;;;20.96;30.56;96686.16;5036502;28;1479;-75
2023/11/18 07:08:14;;;;;;;;;;;;;;;20.99;31.04;96668.25;5020536;28;965;-74
2023/11/18 07:10:40;;;;;;;;;;;;;;;21.20;30.57;96666.47;4987418;28;1213;-75
2023/11/18 07:13:08;;;;;;;;;;;;;;;21.01;30.59;96660.06;5020254;28;1172;-75
2023/11/18 07:15:34;;;;;;;;;;;;;;;21.35;29.97;96672.28;5020247;28;1539;-76
2023/11/18 07:18:01;;;;;;;;;;;;;;;21.27;30.32;96672.59;5020228;28;927;-76
2023/11/18 07:20:27;;;;;;;;;;;;;;;21.53;29.72;96663.75;4996755;28;1969;-76
2023/11/18 07:22:52;;;;;;;;;;;;;;;21.57;29.43;96650.22;4997546;28;961;-75
2023/11/18 07:25:18;;;;;;;;;;;;;;;21.47;29.42;96660.00;4958216;29;897;-76
2023/11/18 07:27:44;;;;;;;;;;;;;;;21.23;29.92;96643.66;4958756;29;928;-75
2023/11/18 07:30:10;;;;;;;;;;;;;;;21.21;30.11;96651.84;4974443;28;1132;-75
2023/11/18 07:32:36;;;;;;;;;;;;;;;21.30;29.67;96653.91;4974547;28;1115;-76
2023/11/18 07:35:02;;;;;;;;;;;;;;;21.24;29.82;96650.91;4958473;29;931;-75
2023/11/18 07:37:27;;;;;;;;;;;;;;;21.24;29.83;96633.94;4958738;29;1026;-76
2023/11/18 07:39:55;;;;;;;;;;;;;;;20.99;29.98;96634.31;4974366;28;935;-74
2023/11/18 07:42:20;;;;;;;;;;;;;;;20.96;30.08;96618.28;4974663;28;1125;-75
2023/11/18 07:44:47;;;;;;;;;;;;;;;21.27;30.03;96606.72;4974473;28;1194;-76
2023/11/18 07:47:16;;;;;;;;;;;;;;;21.33;29.70;96608.47;4958111;29;953;-76
2023/11/18 07:49:41;;;;;;;;;;;;;;;21.54;29.78;96608.69;4973748;28;1180;-74
2023/11/18 07:52:07;;;;;;;;;;;;;;;21.44;29.79;96587.34;5004902;28;1249;-75
2023/11/18 07:54:33;;;;;;;;;;;;;;;21.63;29.29;96586.03;4996447;28;998;-75
2023/11/18 07:56:58;;;;;;;;;;;;;;;21.18;29.94;96601.88;5043483;28;1133;-76
2023/11/18 07:59:24;;;;;;;;;;;;;;;21.07;29.71;96591.06;5039149;28;1041;-75
2023/11/18 08:01:49;;;;;;;;;;;;;;;21.29;29.45;96602.16;5036466;28;1984;-74
2023/11/18 08:04:17;;;;;;;;;;;;;;;21.03;29.68;96612.28;5020166;28;997;-74
2023/11/18 08:06:45;;;;;;;;;;;;;;;21.25;29.69;96617.75;4990866;28;1549;-76
2023/11/18 08:09:13;;;;;;;;;;;;;;;21.05;29.82;96621.88;4976498;28;1610;-76
2023/11/18 08:11:41;;;;;;;;;;;;;;;21.18;29.55;96629.38;4957545;28;1557;-75
2023/11/18 08:14:09;;;;;;;;;;;;;;;20.96;29.92;96629.59;4970268;28;1517;-77
2023/11/18 08:16:35;;;;;;;;;;;;;;;21.27;29.81;96632.97;4960204;28;1563;-76
2023/11/18 08:19:07;;;;;;;;;;;;;;;21.38;29.66;96643.03;4960183;28;1711;-76
2023/11/18 08:21:34;;;;;;;;;;;;;;;21.43;29.69;96653.72;4935360;28;1902;-75
2023/11/18 08:24:00;;;;;;;;;;;;;;;21.54;29.38;96668.91;4929895;29;1559;-76
2023/11/18 08:26:25;;;;;;;;;;;;;;;21.21;29.47;96640.53;4905874;29;1477;-76
2023/11/18 08:28:51;;;;;;;;;;;;;;;21.02;29.90;96630.53;4922195;29;1643;-76
2023/11/18 08:31:17;;;;;;;;;;;;;;;21.17;29.75;96634.25;4937792;28;1399;-76
2023/11/18 08:33:43;;;;;;;;;;;;;;;21.38;29.16;96643.03;4938243;29;1132;-76
2023/11/18 08:36:08;;;;;;;;;;;;;;;21.03;29.63;96651.88;4933124;29;1294;-75
2023/11/18 08:38:35;;;;;;;;;;;;;;;21.14;29.32;96638.06;4951093;29;1586;-75
2023/11/18 08:41:00;;;;;;;;;;;;;;;21.31;29.01;96644.16;4940706;29;1899;-76
2023/11/18 08:43:28;;;;;;;;;;;;;;;21.25;29.62;96624.19;4942927;28;1318;-75
2023/11/18 08:45:56;;;;;;;;;;;;;;;21.06;29.76;96628.31;4960279;28;1579;-76
2023/11/18 08:48:22;;;;;;;;;;;;;;;21.24;29.58;96628.28;4927997;28;1569;-75
2023/11/18 08:50:48;;;;;;;;;;;;;;;21.44;28.94;96602.28;4975232;28;1638;-76
2023/11/18 08:53:17;;;;;;;;;;;;;;;21.32;29.31;96597.63;5005679;28;1488;-76
2023/11/18 08:55:50;;;;;;;;;;;;;;;21.68;28.70;96593.84;4993341;28;1519;-76
2023/11/18 08:58:18;;;;;;;;;;;;;;;21.68;28.90;96593.84;5005423;28;1458;-77
2023/11/18 09:03:37;;;;;;;;;;;;;;;21.14;29.16;96597.66;5001303;28;1504;-76
2023/11/18 09:06:17;;;;;;;;;;;;;;;21.28;28.89;96594.94;4970882;28;1520;-76
2023/11/18 09:08:42;;;;;;;;;;;;;;;21.23;29.25;96592.75;4967085;28;1581;-76
2023/11/18 09:11:10;;;;;;;;;;;;;;;21.26;28.99;96610.81;4953732;28;1546;-76
2023/11/18 09:13:36;;;;;;;;;;;;;;;21.25;28.70;96624.19;4952105;28;1543;-77
2023/11/18 09:16:08;;;;;;;;;;;;;;;21.35;29.09;96627.00;4947883;29;1607;-75
2023/11/18 09:18:34;;;;;;;;;;;;;;;21.25;29.28;96618.53;4932687;28;1442;-75
2023/11/18 09:21:05;;;;;;;;;;;;;;;21.25;29.26;96607.22;4969849;28;1986;-77
2023/11/18 09:23:31;;;;;;;;;;;;;;;21.38;28.99;96609.88;4959470;28;1462;-77
2023/11/18 09:25:57;;;;;;;;;;;;;;;21.36;28.75;96614.44;4959256;28;1582;-74
2023/11/18 09:28:24;;;;;;;;;;;;;;;21.38;28.81;96615.53;4959010;28;2511;-75
2023/11/18 09:30:49;;;;;;;;;;;;;;;21.39;28.80;96610.66;4943481;28;1658;-76
2023/11/18 09:33:25;;;;;;;;;;;;;;;21.16;28.89;96600.81;4972005;28;1416;-76
2023/11/18 09:35:58;;;;;;;;;;;;;;;21.18;28.96;96598.28;4958483;28;1615;-76
2023/11/18 09:38:27;;;;;;;;;;;;;;;21.25;28.90;96581.75;4941262;28;1362;-75
2023/11/18 09:40:53;;;;;;;;;;;;;;;21.43;28.99;96566.00;4958624;28;1969;-76
2023/11/18 09:43:20;;;;;;;;;;;;;;;21.20;29.14;96548.47;4988055;28;1211;-76
2023/11/18 09:45:47;;;;;;;;;;;;;;;21.48;28.63;96534.22;4992429;28;1570;-76
2023/11/18 09:48:17;;;;;;;;;;;;;;;21.44;28.47;96533.59;5014443;28;1437;-76
2023/11/18 09:50:47;;;;;;;;;;;;;;;21.46;28.72;96539.56;4998718;28;1247;-76
2023/11/18 09:53:12;;;;;;;;;;;;;;;21.47;28.31;96543.97;5030899;28;1399;-75
2023/11/18 09:55:55;;;;;;;;;;;;;;;21.38;28.54;96524.19;5031372;28;1109;-75
2023/11/18 09:58:24;;;;;;;;;;;;;;;21.35;28.62;96522.31;5014934;28;983;-76
2023/11/18 10:00:50;;;;;;;;;;;;;;;21.19;28.49;96512.97;5016480;28;1902;-77
2023/11/18 10:03:16;;;;;;;;;;;;;;;21.01;29.35;96507.34;5015469;28;873;-75
2023/11/18 10:05:42;;;;;;;;;;;;;;;20.94;28.97;96508.50;5016079;28;972;-76
2023/11/18 10:08:07;;;;;;;;;;;;;;;21.12;28.96;96507.63;5016379;28;939;-75
2023/11/18 10:10:36;;;;;;;;;;;;;;;21.17;28.75;96504.16;5014901;28;1039;-76
2023/11/18 10:13:04;;;;;;;;;;;;;;;21.20;28.92;96497.53;5016396;28;859;-76
2023/11/18 10:15:31;;;;;;;;;;;;;;;21.42;28.77;96485.19;4998847;28;932;-76
2023/11/18 10:17:59;;;;;;;;;;;;;;;21.59;28.32;96458.81;4998180;28;1920;-76
2023/11/18 10:20:51;;;;;;;;;;;;;;;21.42;28.44;96451.25;5015544;28;1972;-76
2023/11/18 10:23:20;;;;;;;;;;;;;;;21.68;27.74;96463.66;4995211;28;1078;-76
2023/11/18 10:25:48;;;;;;;;;;;;;;;21.19;28.38;96473.34;4998405;28;969;-76
2023/11/18 10:28:23;;;;;;;;;;;;;;;21.23;28.52;96473.16;4982369;28;1025;-77
2023/11/18 10:30:49;;;;;;;;;;;;;;;21.15;28.61;96478.41;4982325;28;1100;-76
2023/11/18 10:33:16;;;;;;;;;;;;;;;21.13;28.61;96480.91;4998553;28;1048;-74
2023/11/18 10:35:55;;;;;;;;;;;;;;;20.91;28.99;96477.56;4998324;28;1053;-75
2023/11/18 10:38:25;;;;;;;;;;;;;;;21.01;28.99;96468.56;4998412;28;987;-74
2023/11/18 10:40:57;;;;;;;;;;;;;;;21.11;28.78;96477.78;4997898;28;1963;-75
2023/11/18 10:43:25;;;;;;;;;;;;;;;21.48;28.41;96463.47;4981782;28;896;-74
2023/11/18 10:45:52;;;;;;;;;;;;;;;21.46;28.33;96471.66;4997863;28;911;-76
2023/11/18 10:48:20;;;;;;;;;;;;;;;21.26;28.80;96472.22;4998096;28;1083;-75
2023/11/18 10:50:46;;;;;;;;;;;;;;;21.19;28.82;96473.34;4981975;28;1082;-75
2023/11/18 10:53:13;;;;;;;;;;;;;;;21.08;28.49;96458.94;4942765;29;1393;-74
2023/11/18 10:55:40;;;;;;;;;;;;;;;20.90;29.08;96461.84;4958819;29;1005;-75
2023/11/18 10:58:07;;;;;;;;;;;;;;;21.14;28.58;96448.56;4942625;29;1015;-75
2023/11/18 11:00:48;;;;;;;;;;;;;;;21.20;28.49;96446.63;4952953;29;1978;-76
2023/11/18 11:03:14;;;;;;;;;;;;;;;21.10;28.73;96456.44;4958732;29;955;-76
2023/11/18 11:05:42;;;;;;;;;;;;;;;21.10;28.77;96464.91;4958987;29;1212;-74
2023/11/18 11:08:07;;;;;;;;;;;;;;;21.40;28.32;96476.41;4943279;29;1005;-76
2023/11/18 11:10:33;;;;;;;;;;;;;;;21.53;28.23;96474.13;4942933;29;1278;-74
2023/11/18 11:13:01;;;;;;;;;;;;;;;21.46;28.48;96478.09;4942623;29;980;-76
2023/11/18 11:15:31;;;;;;;;;;;;;;;21.37;28.55;96488.69;4943258;29;1002;-76
2023/11/18 11:18:08;;;;;;;;;;;;;;;21.41;28.53;96500.63;4943164;29;977;-75
2023/11/18 11:20:35;;;;;;;;;;;;;;;21.43;28.61;96498.06;4943936;29;1983;-75
2023/11/18 11:23:21;;;;;;;;;;;;;;;21.49;28.41;96507.47;4958757;29;1018;-75
2023/11/18 11:25:57;;;;;;;;;;;;;;;20.98;28.70;96509.09;4958610;28;1065;-75
2023/11/18 11:28:22;;;;;;;;;;;;;;;21.27;28.53;96514.16;4942436;29;1264;-75
2023/11/18 11:30:58;;;;;;;;;;;;;;;21.04;29.19;96495.09;4985044;28;1002;-75
2023/11/18 11:33:40;;;;;;;;;;;;;;;21.53;28.21;96502.44;5017631;28;1241;-75
2023/11/18 11:36:11;;;;;;;;;;;;;;;21.36;28.81;96479.41;5001811;28;1199;-75
2023/11/18 11:38:37;;;;;;;;;;;;;;;21.49;28.34;96479.19;5018308;28;1173;-75
2023/11/18 11:41:04;;;;;;;;;;;;;;;21.76;28.03;96469.72;5017546;28;1902;-74
2023/11/18 11:43:30;;;;;;;;;;;;;;;21.35;28.43;96455.22;5017823;28;1009;-77
2023/11/18 11:45:55;;;;;;;;;;;;;;;21.38;28.63;96430.84;5001398;28;1193;-76
2023/11/18 11:48:27;;;;;;;;;;;;;;;21.04;28.93;96415.94;5017168;28;1034;-75
2023/11/18 11:51:01;;;;;;;;;;;;;;;21.25;28.50;96392.22;5001800;28;1015;-75
2023/11/18 11:53:27;;;;;;;;;;;;;;;21.19;28.66;96385.66;5018184;28;1145;-75
2023/11/18 11:55:53;;;;;;;;;;;;;;;21.14;28.96;96375.03;5001314;28;965;-75
2023/11/18 11:58:36;;;;;;;;;;;;;;;20.85;29.12;96374.88;5001186;28;1364;-75
2023/11/18 12:01:08;;;;;;;;;;;;;;;21.09;28.70;96372.84;5000950;28;1902;-76
2023/11/18 12:03:38;;;;;;;;;;;;;;;21.41;28.41;96393.09;5015139;28;995;-74
2023/11/18 12:06:07;;;;;;;;;;;;;;;21.62;27.95;96392.00;5016317;28;1425;-76
2023/11/18 12:08:39;;;;;;;;;;;;;;;21.53;27.74;96389.22;5000645;28;1001;-74
2023/11/18 12:11:09;;;;;;;;;;;;;;;21.32;28.34;96372.09;5016925;28;953;-75
2023/11/18 12:13:39;;;;;;;;;;;;;;;21.66;27.70;96369.13;5003129;28;1143;-76
2023/11/18 12:16:05;;;;;;;;;;;;;;;21.41;27.87;96354.25;5019730;28;1009;-75
2023/11/18 12:18:36;;;;;;;;;;;;;;;21.35;27.96;96361.88;5035269;28;1028;-74
2023/11/18 12:21:02;;;;;;;;;;;;;;;21.43;27.51;96351.72;5035648;28;1910;-75
2023/11/18 12:23:28;;;;;;;;;;;;;;;21.12;28.27;96349.25;5018820;28;1561;-75
2023/11/18 12:25:57;;;;;;;;;;;;;;;21.36;28.50;96340.78;5018931;28;1684;-75
2023/11/18 12:28:30;;;;;;;;;;;;;;;21.48;28.72;96347.44;5005418;28;2002;-76
2023/11/18 12:30:56;;;;;;;;;;;;;;;21.83;28.61;96333.44;5035768;28;991;-75
2023/11/18 12:33:30;;;;;;;;;;;;;;;21.78;29.17;96320.75;5018669;28;924;-76
2023/11/18 12:36:14;;;;;;;;;;;;;;;21.64;29.44;96315.06;5035312;28;975;-76
2023/11/18 12:38:45;;;;;;;;;;;;;;;21.99;29.03;96303.88;5034855;28;1348;-75
2023/11/18 12:41:15;;;;;;;;;;;;;;;21.81;29.26;96304.81;5035155;28;1967;-75
2023/11/18 12:43:51;;;;;;;;;;;;;;;21.84;29.40;96307.47;4996250;28;1321;-76
2023/11/18 12:46:37;;;;;;;;;;;;;;;21.87;29.36;96322.72;4940164;29;928;-76
2023/11/18 12:49:02;;;;;;;;;;;;;;;22.13;28.88;96317.28;4940581;29;943;-76
2023/11/18 12:51:30;;;;;;;;;;;;;;;21.71;28.84;96326.00;4925206;29;962;-75
2023/11/18 12:53:56;;;;;;;;;;;;;;;21.59;28.93;96342.00;4940608;29;983;-74
2023/11/18 12:56:24;;;;;;;;;;;;;;;21.37;28.69;96333.06;4937404;29;1106;-75
2023/11/18 12:58:50;;;;;;;;;;;;;;;21.31;28.99;96344.28;4937189;29;1042;-76
2023/11/18 13:01:16;;;;;;;;;;;;;;;21.25;28.70;96358.28;4921386;29;1911;-75